Heat Index SAI AWOS graphical Display Untitled Document
Saratoga County Airport, NY (5B2)
255
16:20
30 DEC 16
11
18
N/A
29.52
N/A
433
32(F), 0(C)
23(F), -5(C)
23 F
68%
FEW032 SCT040 BKN049
10+
N/A
N/A
N/A
16:20 zulu Wind 255 at 11 Knots, Gusting 18 Knots, Altimeter 29.52
METAR K5B2 301620Z AUTO 27011G18KT 10+SM FEW032 SCT043 BKN049 00/M05 A2952 A02
METAR:
FAA Disclaimer--Advisory Use ONLY, not for flight info-- NOTICE: Saratoga County Airport unicom frequency will change from 122.80 mhz to 123.075 mhz effective March 31, 2014.......
INFO:
Wind Direction:
Wind Speed:
Wind Gust:
Wind Variable:
Altimeter:
Dens Alt:
Elev:
Temp:
Dwpt:
Wind Chill
Rel Humidity:
Ceiling:
Visibility:
Prsnt Wea:
PCPN:
Remarks:
NOTICE--Current weather data is more than 15 minutes old. The SAI AWOS/ASOS Display is inoperative at this time.
How to read the WebPage